sensor_id;sensor_type;location;lat;lon;timestamp;P1;durP1;ratioP1;P2;durP2;ratioP2
56083;SDS011;41958;52.416;13.428;2022-08-04T00:02:02;5.68;;;5.10;;
56083;SDS011;41958;52.416;13.428;2022-08-04T00:04:44;6.00;;;5.35;;
56083;SDS011;41958;52.416;13.428;2022-08-04T00:07:38;7.03;;;5.53;;
56083;SDS011;41958;52.416;13.428;2022-08-04T00:10:09;6.82;;;6.07;;
56083;SDS011;41958;52.416;13.428;2022-08-04T00:12:35;9.63;;;5.90;;
56083;SDS011;41958;52.416;13.428;2022-08-04T00:15:06;8.82;;;6.15;;
56083;SDS011;41958;52.416;13.428;2022-08-04T00:17:39;11.23;;;6.20;;
56083;SDS011;41958;52.416;13.428;2022-08-04T00:20:08;6.45;;;5.85;;
56083;SDS011;41958;52.416;13.428;2022-08-04T00:22:36;6.82;;;5.85;;
56083;SDS011;41958;52.416;13.428;2022-08-04T00:25:04;8.70;;;5.95;;
56083;SDS011;41958;52.416;13.428;2022-08-04T00:27:30;6.25;;;5.65;;
56083;SDS011;41958;52.416;13.428;2022-08-04T00:29:57;8.90;;;6.22;;
56083;SDS011;41958;52.416;13.428;2022-08-04T00:32:25;7.80;;;6.53;;
56083;SDS011;41958;52.416;13.428;2022-08-04T00:34:50;11.95;;;6.28;;
56083;SDS011;41958;52.416;13.428;2022-08-04T00:37:17;8.07;;;6.30;;
56083;SDS011;41958;52.416;13.428;2022-08-04T00:39:45;6.60;;;5.85;;
56083;SDS011;41958;52.416;13.428;2022-08-04T00:45:11;7.40;;;5.80;;
56083;SDS011;41958;52.416;13.428;2022-08-04T00:48:03;7.82;;;5.90;;
56083;SDS011;41958;52.416;13.428;2022-08-04T00:53:39;7.80;;;6.05;;
56083;SDS011;41958;52.416;13.428;2022-08-04T00:56:14;8.13;;;6.05;;
56083;SDS011;41958;52.416;13.428;2022-08-04T00:59:02;7.00;;;5.30;;
56083;SDS011;41958;52.416;13.428;2022-08-04T01:01:58;6.53;;;5.85;;
56083;SDS011;41958;52.416;13.428;2022-08-04T01:07:30;6.38;;;5.57;;
56083;SDS011;41958;52.416;13.428;2022-08-04T01:10:22;6.25;;;5.65;;
56083;SDS011;41958;52.416;13.428;2022-08-04T01:16:18;6.80;;;5.93;;
56083;SDS011;41958;52.416;13.428;2022-08-04T01:19:02;6.75;;;6.07;;
56083;SDS011;41958;52.416;13.428;2022-08-04T01:21:52;10.95;;;6.45;;
56083;SDS011;41958;52.416;13.428;2022-08-04T01:24:50;6.57;;;5.78;;
56083;SDS011;41958;52.416;13.428;2022-08-04T01:27:46;8.30;;;6.18;;
56083;SDS011;41958;52.416;13.428;2022-08-04T01:30:28;7.60;;;5.50;;
56083;SDS011;41958;52.416;13.428;2022-08-04T01:33:04;6.55;;;5.82;;
56083;SDS011;41958;52.416;13.428;2022-08-04T01:35:53;6.43;;;5.82;;
56083;SDS011;41958;52.416;13.428;2022-08-04T01:38:24;6.72;;;6.03;;
56083;SDS011;41958;52.416;13.428;2022-08-04T01:40:53;7.70;;;6.47;;
56083;SDS011;41958;52.416;13.428;2022-08-04T01:43:21;7.82;;;6.60;;
56083;SDS011;41958;52.416;13.428;2022-08-04T01:45:51;6.68;;;6.07;;
56083;SDS011;41958;52.416;13.428;2022-08-04T01:48:22;8.13;;;6.40;;
56083;SDS011;41958;52.416;13.428;2022-08-04T01:50:49;8.13;;;6.28;;
56083;SDS011;41958;52.416;13.428;2022-08-04T01:53:17;7.72;;;6.40;;
56083;SDS011;41958;52.416;13.428;2022-08-04T01:55:44;9.95;;;6.22;;
56083;SDS011;41958;52.416;13.428;2022-08-04T01:58:12;8.25;;;6.45;;
56083;SDS011;41958;52.416;13.428;2022-08-04T02:00:38;7.32;;;6.22;;
56083;SDS011;41958;52.416;13.428;2022-08-04T02:03:07;7.15;;;6.40;;
56083;SDS011;41958;52.416;13.428;2022-08-04T02:05:33;8.48;;;6.47;;
56083;SDS011;41958;52.416;13.428;2022-08-04T02:08:14;7.13;;;5.95;;
56083;SDS011;41958;52.416;13.428;2022-08-04T02:14:01;10.13;;;6.65;;
56083;SDS011;41958;52.416;13.428;2022-08-04T02:19:23;9.40;;;6.60;;
56083;SDS011;41958;52.416;13.428;2022-08-04T02:21:57;9.50;;;7.20;;
56083;SDS011;41958;52.416;13.428;2022-08-04T02:24:30;7.57;;;6.13;;
56083;SDS011;41958;52.416;13.428;2022-08-04T02:26:56;7.60;;;6.80;;
56083;SDS011;41958;52.416;13.428;2022-08-04T02:29:29;9.10;;;6.40;;
56083;SDS011;41958;52.416;13.428;2022-08-04T02:32:03;7.35;;;6.43;;
56083;SDS011;41958;52.416;13.428;2022-08-04T02:37:11;8.30;;;6.53;;
56083;SDS011;41958;52.416;13.428;2022-08-04T02:39:40;9.70;;;6.82;;
56083;SDS011;41958;52.416;13.428;2022-08-04T02:42:09;7.85;;;6.38;;
56083;SDS011;41958;52.416;13.428;2022-08-04T02:44:36;8.30;;;6.32;;
56083;SDS011;41958;52.416;13.428;2022-08-04T02:47:03;7.07;;;6.35;;
56083;SDS011;41958;52.416;13.428;2022-08-04T02:49:30;7.63;;;6.18;;
56083;SDS011;41958;52.416;13.428;2022-08-04T02:52:00;7.47;;;5.95;;
56083;SDS011;41958;52.416;13.428;2022-08-04T02:54:34;10.73;;;6.55;;
56083;SDS011;41958;52.416;13.428;2022-08-04T02:57:03;7.03;;;6.03;;
56083;SDS011;41958;52.416;13.428;2022-08-04T02:59:47;8.80;;;5.80;;
56083;SDS011;41958;52.416;13.428;2022-08-04T03:02:31;7.00;;;6.30;;
56083;SDS011;41958;52.416;13.428;2022-08-04T03:05:07;8.18;;;6.40;;
56083;SDS011;41958;52.416;13.428;2022-08-04T03:10:55;10.05;;;6.60;;
56083;SDS011;41958;52.416;13.428;2022-08-04T03:13:37;7.97;;;7.00;;
56083;SDS011;41958;52.416;13.428;2022-08-04T03:28:15;8.88;;;6.80;;
56083;SDS011;41958;52.416;13.428;2022-08-04T03:31:09;7.40;;;6.68;;
56083;SDS011;41958;52.416;13.428;2022-08-04T03:33:59;8.73;;;6.78;;
56083;SDS011;41958;52.416;13.428;2022-08-04T03:39:27;9.60;;;6.85;;
56083;SDS011;41958;52.416;13.428;2022-08-04T03:58:51;11.43;;;6.68;;
56083;SDS011;41958;52.416;13.428;2022-08-04T04:10:12;9.07;;;7.00;;
56083;SDS011;41958;52.416;13.428;2022-08-04T04:15:58;8.07;;;7.03;;
56083;SDS011;41958;52.416;13.428;2022-08-04T04:30:07;13.45;;;8.02;;
56083;SDS011;41958;52.416;13.428;2022-08-04T04:35:59;12.25;;;8.15;;
56083;SDS011;41958;52.416;13.428;2022-08-04T04:44:14;9.55;;;7.30;;
56083;SDS011;41958;52.416;13.428;2022-08-04T04:46:51;11.57;;;8.13;;
56083;SDS011;41958;52.416;13.428;2022-08-04T04:49:33;10.13;;;8.25;;
56083;SDS011;41958;52.416;13.428;2022-08-04T04:52:17;8.90;;;7.60;;
56083;SDS011;41958;52.416;13.428;2022-08-04T04:55:10;9.85;;;7.85;;
56083;SDS011;41958;52.416;13.428;2022-08-04T04:57:42;8.70;;;7.68;;
56083;SDS011;41958;52.416;13.428;2022-08-04T05:00:09;10.02;;;8.23;;
56083;SDS011;41958;52.416;13.428;2022-08-04T05:02:58;9.07;;;7.93;;
56083;SDS011;41958;52.416;13.428;2022-08-04T05:05:36;9.20;;;7.82;;
56083;SDS011;41958;52.416;13.428;2022-08-04T05:08:25;10.73;;;8.73;;
56083;SDS011;41958;52.416;13.428;2022-08-04T05:16:34;15.65;;;8.75;;
56083;SDS011;41958;52.416;13.428;2022-08-04T05:24:36;11.00;;;7.88;;
56083;SDS011;41958;52.416;13.428;2022-08-04T05:27:07;17.70;;;8.35;;
56083;SDS011;41958;52.416;13.428;2022-08-04T05:29:41;12.43;;;8.02;;
56083;SDS011;41958;52.416;13.428;2022-08-04T05:32:13;16.40;;;8.27;;
56083;SDS011;41958;52.416;13.428;2022-08-04T05:34:46;11.15;;;8.10;;
56083;SDS011;41958;52.416;13.428;2022-08-04T05:37:16;12.57;;;7.95;;
56083;SDS011;41958;52.416;13.428;2022-08-04T05:39:45;8.80;;;7.78;;
56083;SDS011;41958;52.416;13.428;2022-08-04T05:42:13;10.07;;;7.78;;
56083;SDS011;41958;52.416;13.428;2022-08-04T05:44:39;10.50;;;7.15;;
56083;SDS011;41958;52.416;13.428;2022-08-04T05:47:06;13.32;;;7.38;;
56083;SDS011;41958;52.416;13.428;2022-08-04T05:49:35;11.68;;;6.90;;
56083;SDS011;41958;52.416;13.428;2022-08-04T05:52:02;13.40;;;7.13;;
56083;SDS011;41958;52.416;13.428;2022-08-04T05:54:30;9.38;;;7.20;;
56083;SDS011;41958;52.416;13.428;2022-08-04T05:56:57;9.48;;;6.93;;
56083;SDS011;41958;52.416;13.428;2022-08-04T05:59:23;6.80;;;6.30;;
56083;SDS011;41958;52.416;13.428;2022-08-04T06:01:49;9.02;;;6.68;;
56083;SDS011;41958;52.416;13.428;2022-08-04T06:04:16;7.32;;;6.57;;
56083;SDS011;41958;52.416;13.428;2022-08-04T06:06:44;9.25;;;6.18;;
56083;SDS011;41958;52.416;13.428;2022-08-04T06:09:10;6.85;;;6.15;;
56083;SDS011;41958;52.416;13.428;2022-08-04T06:11:36;6.82;;;6.03;;
56083;SDS011;41958;52.416;13.428;2022-08-04T06:14:03;6.13;;;5.55;;
56083;SDS011;41958;52.416;13.428;2022-08-04T06:16:37;7.47;;;5.32;;
56083;SDS011;41958;52.416;13.428;2022-08-04T06:19:08;7.82;;;5.53;;
56083;SDS011;41958;52.416;13.428;2022-08-04T06:21:38;6.65;;;5.60;;
56083;SDS011;41958;52.416;13.428;2022-08-04T06:24:07;6.53;;;5.80;;
56083;SDS011;41958;52.416;13.428;2022-08-04T06:26:35;7.75;;;5.43;;
56083;SDS011;41958;52.416;13.428;2022-08-04T06:29:02;10.90;;;5.55;;
56083;SDS011;41958;52.416;13.428;2022-08-04T06:31:28;8.93;;;5.82;;
56083;SDS011;41958;52.416;13.428;2022-08-04T06:34:08;7.20;;;5.13;;
56083;SDS011;41958;52.416;13.428;2022-08-04T06:36:36;5.88;;;5.28;;
56083;SDS011;41958;52.416;13.428;2022-08-04T06:39:04;7.18;;;5.35;;
56083;SDS011;41958;52.416;13.428;2022-08-04T06:41:31;6.28;;;5.05;;
56083;SDS011;41958;52.416;13.428;2022-08-04T06:44:02;5.65;;;5.10;;
56083;SDS011;41958;52.416;13.428;2022-08-04T06:48:58;6.38;;;4.75;;
56083;SDS011;41958;52.416;13.428;2022-08-04T06:51:23;9.85;;;4.95;;
56083;SDS011;41958;52.416;13.428;2022-08-04T06:53:50;5.22;;;4.43;;
56083;SDS011;41958;52.416;13.428;2022-08-04T06:56:15;5.32;;;4.32;;
56083;SDS011;41958;52.416;13.428;2022-08-04T06:58:43;6.65;;;4.47;;
56083;SDS011;41958;52.416;13.428;2022-08-04T07:01:11;5.82;;;4.82;;
56083;SDS011;41958;52.416;13.428;2022-08-04T07:03:37;6.45;;;4.47;;
56083;SDS011;41958;52.416;13.428;2022-08-04T07:06:02;5.25;;;4.68;;
56083;SDS011;41958;52.416;13.428;2022-08-04T07:08:28;5.50;;;4.50;;
56083;SDS011;41958;52.416;13.428;2022-08-04T07:10:54;8.48;;;4.60;;
56083;SDS011;41958;52.416;13.428;2022-08-04T07:13:21;3.95;;;3.67;;
56083;SDS011;41958;52.416;13.428;2022-08-04T07:15:47;5.50;;;4.20;;
56083;SDS011;41958;52.416;13.428;2022-08-04T07:18:13;7.85;;;4.38;;
56083;SDS011;41958;52.416;13.428;2022-08-04T07:20:40;5.07;;;4.47;;
56083;SDS011;41958;52.416;13.428;2022-08-04T07:23:06;4.72;;;4.32;;
56083;SDS011;41958;52.416;13.428;2022-08-04T07:25:33;6.03;;;4.10;;
56083;SDS011;41958;52.416;13.428;2022-08-04T07:27:59;7.53;;;3.63;;
56083;SDS011;41958;52.416;13.428;2022-08-04T07:30:25;4.10;;;3.70;;
56083;SDS011;41958;52.416;13.428;2022-08-04T07:32:53;3.95;;;3.63;;
56083;SDS011;41958;52.416;13.428;2022-08-04T07:35:20;6.93;;;3.67;;
56083;SDS011;41958;52.416;13.428;2022-08-04T07:37:47;5.07;;;3.60;;
56083;SDS011;41958;52.416;13.428;2022-08-04T07:40:12;11.30;;;3.35;;
56083;SDS011;41958;52.416;13.428;2022-08-04T07:42:37;5.75;;;3.38;;
56083;SDS011;41958;52.416;13.428;2022-08-04T07:45:03;3.97;;;3.15;;
56083;SDS011;41958;52.416;13.428;2022-08-04T07:47:29;6.07;;;3.15;;
56083;SDS011;41958;52.416;13.428;2022-08-04T07:49:54;3.20;;;2.92;;
56083;SDS011;41958;52.416;13.428;2022-08-04T07:52:20;4.28;;;2.72;;
56083;SDS011;41958;52.416;13.428;2022-08-04T07:54:46;3.38;;;2.83;;
56083;SDS011;41958;52.416;13.428;2022-08-04T07:57:13;2.67;;;2.45;;
56083;SDS011;41958;52.416;13.428;2022-08-04T07:59:40;2.40;;;2.30;;
56083;SDS011;41958;52.416;13.428;2022-08-04T08:02:05;4.93;;;4.00;;
56083;SDS011;41958;52.416;13.428;2022-08-04T08:04:32;5.30;;;3.45;;
56083;SDS011;41958;52.416;13.428;2022-08-04T08:06:57;6.53;;;3.70;;
56083;SDS011;41958;52.416;13.428;2022-08-04T08:09:23;6.70;;;3.45;;
56083;SDS011;41958;52.416;13.428;2022-08-04T08:11:49;5.10;;;3.45;;
56083;SDS011;41958;52.416;13.428;2022-08-04T08:14:16;2.90;;;2.70;;
56083;SDS011;41958;52.416;13.428;2022-08-04T08:16:42;3.22;;;3.03;;
56083;SDS011;41958;52.416;13.428;2022-08-04T08:19:08;3.83;;;3.15;;
56083;SDS011;41958;52.416;13.428;2022-08-04T08:21:33;5.10;;;2.83;;
56083;SDS011;41958;52.416;13.428;2022-08-04T08:23:59;5.95;;;3.00;;
56083;SDS011;41958;52.416;13.428;2022-08-04T08:26:25;4.88;;;3.08;;
56083;SDS011;41958;52.416;13.428;2022-08-04T08:28:51;4.30;;;3.00;;
56083;SDS011;41958;52.416;13.428;2022-08-04T08:31:17;4.72;;;3.05;;
56083;SDS011;41958;52.416;13.428;2022-08-04T08:33:42;4.10;;;3.00;;
56083;SDS011;41958;52.416;13.428;2022-08-04T08:38:49;5.15;;;3.22;;
56083;SDS011;41958;52.416;13.428;2022-08-04T08:41:42;4.70;;;2.90;;
56083;SDS011;41958;52.416;13.428;2022-08-04T08:47:00;3.47;;;3.17;;
56083;SDS011;41958;52.416;13.428;2022-08-04T08:49:38;6.82;;;2.90;;
56083;SDS011;41958;52.416;13.428;2022-08-04T08:52:30;4.40;;;2.60;;
56083;SDS011;41958;52.416;13.428;2022-08-04T09:00:47;3.10;;;2.78;;
56083;SDS011;41958;52.416;13.428;2022-08-04T09:06:17;4.35;;;2.40;;
56083;SDS011;41958;52.416;13.428;2022-08-04T09:11:55;4.13;;;2.58;;
56083;SDS011;41958;52.416;13.428;2022-08-04T09:14:50;3.03;;;2.20;;
56083;SDS011;41958;52.416;13.428;2022-08-04T09:23:16;4.22;;;2.35;;
56083;SDS011;41958;52.416;13.428;2022-08-04T09:25:53;2.15;;;1.90;;
56083;SDS011;41958;52.416;13.428;2022-08-04T09:28:47;3.83;;;2.20;;
56083;SDS011;41958;52.416;13.428;2022-08-04T09:31:19;3.05;;;2.40;;
56083;SDS011;41958;52.416;13.428;2022-08-04T09:36:45;2.55;;;2.45;;
56083;SDS011;41958;52.416;13.428;2022-08-04T09:39:23;4.97;;;2.53;;
56083;SDS011;41958;52.416;13.428;2022-08-04T09:45:02;3.75;;;2.22;;
56083;SDS011;41958;52.416;13.428;2022-08-04T09:47:48;2.42;;;2.13;;
56083;SDS011;41958;52.416;13.428;2022-08-04T09:50:36;2.80;;;2.20;;
56083;SDS011;41958;52.416;13.428;2022-08-04T09:56:01;2.30;;;1.88;;
56083;SDS011;41958;52.416;13.428;2022-08-04T09:58:39;2.42;;;2.00;;
56083;SDS011;41958;52.416;13.428;2022-08-04T10:01:12;4.28;;;2.25;;
56083;SDS011;41958;52.416;13.428;2022-08-04T10:03:42;3.35;;;2.50;;
56083;SDS011;41958;52.416;13.428;2022-08-04T10:06:33;3.33;;;2.25;;
56083;SDS011;41958;52.416;13.428;2022-08-04T10:09:16;2.70;;;2.50;;
56083;SDS011;41958;52.416;13.428;2022-08-04T10:12:04;2.45;;;2.10;;
56083;SDS011;41958;52.416;13.428;2022-08-04T10:23:32;2.40;;;2.20;;
56083;SDS011;41958;52.416;13.428;2022-08-04T10:29:04;4.60;;;2.10;;
56083;SDS011;41958;52.416;13.428;2022-08-04T10:31:35;3.65;;;2.35;;
56083;SDS011;41958;52.416;13.428;2022-08-04T10:34:11;3.47;;;2.33;;
56083;SDS011;41958;52.416;13.428;2022-08-04T10:39:22;2.28;;;2.10;;
56083;SDS011;41958;52.416;13.428;2022-08-04T10:42:10;2.35;;;2.25;;
56083;SDS011;41958;52.416;13.428;2022-08-04T10:44:53;3.60;;;2.55;;
56083;SDS011;41958;52.416;13.428;2022-08-04T10:47:41;3.05;;;2.25;;
56083;SDS011;41958;52.416;13.428;2022-08-04T10:50:14;2.03;;;1.90;;
56083;SDS011;41958;52.416;13.428;2022-08-04T10:52:45;2.80;;;2.50;;
56083;SDS011;41958;52.416;13.428;2022-08-04T10:55:17;2.10;;;2.00;;
56083;SDS011;41958;52.416;13.428;2022-08-04T10:57:47;3.00;;;2.33;;
56083;SDS011;41958;52.416;13.428;2022-08-04T11:00:20;3.70;;;2.35;;
56083;SDS011;41958;52.416;13.428;2022-08-04T11:02:57;3.10;;;2.03;;
56083;SDS011;41958;52.416;13.428;2022-08-04T11:05:34;2.47;;;2.00;;
56083;SDS011;41958;52.416;13.428;2022-08-04T11:08:10;3.40;;;1.90;;
56083;SDS011;41958;52.416;13.428;2022-08-04T11:10:56;1.92;;;1.80;;
56083;SDS011;41958;52.416;13.428;2022-08-04T11:13:28;2.22;;;2.13;;
56083;SDS011;41958;52.416;13.428;2022-08-04T11:16:01;2.10;;;1.90;;
56083;SDS011;41958;52.416;13.428;2022-08-04T11:18:33;3.03;;;1.95;;
56083;SDS011;41958;52.416;13.428;2022-08-04T11:21:21;3.55;;;2.17;;
56083;SDS011;41958;52.416;13.428;2022-08-04T11:27:00;2.40;;;2.00;;
56083;SDS011;41958;52.416;13.428;2022-08-04T11:29:40;2.40;;;2.20;;
56083;SDS011;41958;52.416;13.428;2022-08-04T11:32:24;6.77;;;2.10;;
56083;SDS011;41958;52.416;13.428;2022-08-04T11:34:59;8.55;;;2.10;;
56083;SDS011;41958;52.416;13.428;2022-08-04T11:37:41;2.63;;;1.77;;
56083;SDS011;41958;52.416;13.428;2022-08-04T11:42:56;2.30;;;1.73;;
56083;SDS011;41958;52.416;13.428;2022-08-04T11:45:33;3.53;;;1.73;;
56083;SDS011;41958;52.416;13.428;2022-08-04T11:48:12;3.40;;;2.00;;
56083;SDS011;41958;52.416;13.428;2022-08-04T11:50:44;2.10;;;2.00;;
56083;SDS011;41958;52.416;13.428;2022-08-04T11:53:15;2.25;;;2.15;;
56083;SDS011;41958;52.416;13.428;2022-08-04T11:55:44;2.28;;;1.90;;
56083;SDS011;41958;52.416;13.428;2022-08-04T11:58:13;2.40;;;2.20;;
56083;SDS011;41958;52.416;13.428;2022-08-04T12:00:40;5.35;;;2.17;;
56083;SDS011;41958;52.416;13.428;2022-08-04T12:03:18;2.10;;;2.00;;
56083;SDS011;41958;52.416;13.428;2022-08-04T12:11:59;3.58;;;2.50;;
56083;SDS011;41958;52.416;13.428;2022-08-04T12:14:42;4.75;;;1.80;;
56083;SDS011;41958;52.416;13.428;2022-08-04T12:17:31;3.03;;;2.40;;
56083;SDS011;41958;52.416;13.428;2022-08-04T12:20:05;1.77;;;1.60;;
56083;SDS011;41958;52.416;13.428;2022-08-04T12:22:39;2.13;;;1.92;;
56083;SDS011;41958;52.416;13.428;2022-08-04T12:25:08;2.33;;;1.90;;
56083;SDS011;41958;52.416;13.428;2022-08-04T12:27:48;3.35;;;1.58;;
56083;SDS011;41958;52.416;13.428;2022-08-04T12:30:33;3.88;;;1.70;;
56083;SDS011;41958;52.416;13.428;2022-08-04T12:33:10;2.53;;;1.58;;
56083;SDS011;41958;52.416;13.428;2022-08-04T12:35:42;4.55;;;1.80;;
56083;SDS011;41958;52.416;13.428;2022-08-04T12:38:11;4.27;;;2.17;;
56083;SDS011;41958;52.416;13.428;2022-08-04T12:40:44;2.00;;;1.80;;
56083;SDS011;41958;52.416;13.428;2022-08-04T12:43:25;1.58;;;1.48;;
56083;SDS011;41958;52.416;13.428;2022-08-04T12:46:02;3.55;;;1.55;;
56083;SDS011;41958;52.416;13.428;2022-08-04T12:48:30;3.50;;;1.88;;
56083;SDS011;41958;52.416;13.428;2022-08-04T12:50:57;1.80;;;1.48;;
56083;SDS011;41958;52.416;13.428;2022-08-04T12:53:27;3.70;;;1.38;;
56083;SDS011;41958;52.416;13.428;2022-08-04T12:55:56;2.35;;;1.42;;
56083;SDS011;41958;52.416;13.428;2022-08-04T12:58:24;4.75;;;1.52;;
56083;SDS011;41958;52.416;13.428;2022-08-04T13:00:52;1.85;;;1.40;;
56083;SDS011;41958;52.416;13.428;2022-08-04T13:03:21;1.65;;;1.50;;
56083;SDS011;41958;52.416;13.428;2022-08-04T13:05:54;1.85;;;1.75;;
56083;SDS011;41958;52.416;13.428;2022-08-04T13:08:19;1.92;;;1.70;;
56083;SDS011;41958;52.416;13.428;2022-08-04T13:10:46;1.60;;;1.50;;
56083;SDS011;41958;52.416;13.428;2022-08-04T13:13:15;3.67;;;1.75;;
56083;SDS011;41958;52.416;13.428;2022-08-04T13:15:43;1.35;;;1.17;;
56083;SDS011;41958;52.416;13.428;2022-08-04T13:18:19;4.05;;;1.30;;
56083;SDS011;41958;52.416;13.428;2022-08-04T13:20:46;1.83;;;1.50;;
56083;SDS011;41958;52.416;13.428;2022-08-04T13:23:16;1.92;;;1.40;;
56083;SDS011;41958;52.416;13.428;2022-08-04T13:25:43;2.45;;;1.20;;
56083;SDS011;41958;52.416;13.428;2022-08-04T13:28:14;3.55;;;1.17;;
56083;SDS011;41958;52.416;13.428;2022-08-04T13:30:47;2.10;;;1.42;;
56083;SDS011;41958;52.416;13.428;2022-08-04T13:33:16;1.55;;;1.23;;
56083;SDS011;41958;52.416;13.428;2022-08-04T13:35:44;2.83;;;1.20;;
56083;SDS011;41958;52.416;13.428;2022-08-04T13:38:11;1.75;;;0.95;;
56083;SDS011;41958;52.416;13.428;2022-08-04T13:40:38;1.55;;;0.90;;
56083;SDS011;41958;52.416;13.428;2022-08-04T13:43:05;2.25;;;1.10;;
56083;SDS011;41958;52.416;13.428;2022-08-04T13:45:32;2.70;;;1.00;;
56083;SDS011;41958;52.416;13.428;2022-08-04T13:48:00;1.10;;;1.00;;
56083;SDS011;41958;52.416;13.428;2022-08-04T13:50:27;1.45;;;0.90;;
56083;SDS011;41958;52.416;13.428;2022-08-04T13:52:55;1.58;;;1.30;;
56083;SDS011;41958;52.416;13.428;2022-08-04T13:55:30;1.92;;;0.95;;
56083;SDS011;41958;52.416;13.428;2022-08-04T13:58:04;1.08;;;1.05;;
56083;SDS011;41958;52.416;13.428;2022-08-04T14:00:47;1.52;;;1.00;;
56083;SDS011;41958;52.416;13.428;2022-08-04T14:03:28;2.70;;;0.90;;
56083;SDS011;41958;52.416;13.428;2022-08-04T14:06:19;2.03;;;0.88;;
56083;SDS011;41958;52.416;13.428;2022-08-04T14:08:55;2.28;;;1.05;;
56083;SDS011;41958;52.416;13.428;2022-08-04T14:11:30;2.03;;;0.82;;
56083;SDS011;41958;52.416;13.428;2022-08-04T14:14:14;0.95;;;0.85;;
56083;SDS011;41958;52.416;13.428;2022-08-04T14:17:02;2.15;;;1.10;;
56083;SDS011;41958;52.416;13.428;2022-08-04T14:22:26;1.17;;;1.08;;
56083;SDS011;41958;52.416;13.428;2022-08-04T14:27:21;1.10;;;1.00;;
56083;SDS011;41958;52.416;13.428;2022-08-04T14:29:47;1.02;;;1.00;;
56083;SDS011;41958;52.416;13.428;2022-08-04T14:32:12;2.05;;;1.00;;
56083;SDS011;41958;52.416;13.428;2022-08-04T14:34:38;1.67;;;1.13;;
56083;SDS011;41958;52.416;13.428;2022-08-04T14:37:06;1.05;;;0.90;;
56083;SDS011;41958;52.416;13.428;2022-08-04T14:39:39;0.88;;;0.88;;
56083;SDS011;41958;52.416;13.428;2022-08-04T14:42:06;5.05;;;1.10;;
56083;SDS011;41958;52.416;13.428;2022-08-04T14:44:37;1.67;;;1.23;;
56083;SDS011;41958;52.416;13.428;2022-08-04T14:47:17;1.67;;;1.58;;
56083;SDS011;41958;52.416;13.428;2022-08-04T14:49:52;2.38;;;0.98;;
56083;SDS011;41958;52.416;13.428;2022-08-04T14:52:22;1.02;;;1.02;;
56083;SDS011;41958;52.416;13.428;2022-08-04T14:54:49;4.97;;;1.30;;
56083;SDS011;41958;52.416;13.428;2022-08-04T14:57:14;1.73;;;0.80;;
56083;SDS011;41958;52.416;13.428;2022-08-04T14:59:41;3.65;;;0.93;;
56083;SDS011;41958;52.416;13.428;2022-08-04T15:02:07;1.02;;;0.90;;
56083;SDS011;41958;52.416;13.428;2022-08-04T15:04:34;2.20;;;0.90;;
56083;SDS011;41958;52.416;13.428;2022-08-04T15:07:07;1.10;;;1.00;;
56083;SDS011;41958;52.416;13.428;2022-08-04T15:09:33;0.90;;;0.90;;
56083;SDS011;41958;52.416;13.428;2022-08-04T15:11:59;1.33;;;1.25;;
56083;SDS011;41958;52.416;13.428;2022-08-04T15:14:26;1.55;;;1.00;;
56083;SDS011;41958;52.416;13.428;2022-08-04T15:16:52;1.63;;;1.00;;
56083;SDS011;41958;52.416;13.428;2022-08-04T15:19:30;2.53;;;1.30;;
56083;SDS011;41958;52.416;13.428;2022-08-04T15:22:31;1.73;;;1.20;;
56083;SDS011;41958;52.416;13.428;2022-08-04T15:24:56;1.25;;;1.10;;
56083;SDS011;41958;52.416;13.428;2022-08-04T15:27:26;1.00;;;1.00;;
56083;SDS011;41958;52.416;13.428;2022-08-04T15:29:55;1.20;;;1.05;;
56083;SDS011;41958;52.416;13.428;2022-08-04T15:32:24;0.90;;;0.90;;
56083;SDS011;41958;52.416;13.428;2022-08-04T15:34:51;1.83;;;1.00;;
56083;SDS011;41958;52.416;13.428;2022-08-04T15:37:27;5.28;;;1.10;;
56083;SDS011;41958;52.416;13.428;2022-08-04T15:40:11;1.10;;;1.00;;
56083;SDS011;41958;52.416;13.428;2022-08-04T15:42:47;1.83;;;1.05;;
56083;SDS011;41958;52.416;13.428;2022-08-04T15:45:24;1.27;;;1.00;;
56083;SDS011;41958;52.416;13.428;2022-08-04T15:50:27;2.38;;;1.00;;
56083;SDS011;41958;52.416;13.428;2022-08-04T15:53:05;1.30;;;1.08;;
56083;SDS011;41958;52.416;13.428;2022-08-04T15:55:31;2.95;;;1.00;;
56083;SDS011;41958;52.416;13.428;2022-08-04T16:08:56;4.05;;;1.02;;
56083;SDS011;41958;52.416;13.428;2022-08-04T16:16:25;1.95;;;0.95;;
56083;SDS011;41958;52.416;13.428;2022-08-04T16:18:52;4.15;;;1.00;;
56083;SDS011;41958;52.416;13.428;2022-08-04T16:21:19;0.90;;;0.90;;
56083;SDS011;41958;52.416;13.428;2022-08-04T16:29:01;1.63;;;0.80;;
56083;SDS011;41958;52.416;13.428;2022-08-04T16:34:32;2.85;;;1.00;;
56083;SDS011;41958;52.416;13.428;2022-08-04T16:37:11;2.70;;;1.00;;
56083;SDS011;41958;52.416;13.428;2022-08-04T16:39:38;1.85;;;0.80;;
56083;SDS011;41958;52.416;13.428;2022-08-04T16:44:57;2.83;;;1.00;;
56083;SDS011;41958;52.416;13.428;2022-08-04T16:50:12;1.90;;;0.98;;
56083;SDS011;41958;52.416;13.428;2022-08-04T16:52:45;3.45;;;1.00;;
56083;SDS011;41958;52.416;13.428;2022-08-04T16:55:15;2.67;;;1.05;;
56083;SDS011;41958;52.416;13.428;2022-08-04T16:57:48;0.70;;;0.70;;
56083;SDS011;41958;52.416;13.428;2022-08-04T17:02:41;2.00;;;0.80;;
56083;SDS011;41958;52.416;13.428;2022-08-04T17:05:19;1.33;;;0.90;;
56083;SDS011;41958;52.416;13.428;2022-08-04T17:07:53;1.63;;;0.82;;
56083;SDS011;41958;52.416;13.428;2022-08-04T17:10:29;3.67;;;0.70;;
56083;SDS011;41958;52.416;13.428;2022-08-04T17:12:56;4.47;;;1.10;;
56083;SDS011;41958;52.416;13.428;2022-08-04T17:15:22;2.47;;;1.00;;
56083;SDS011;41958;52.416;13.428;2022-08-04T17:17:48;1.38;;;1.00;;
56083;SDS011;41958;52.416;13.428;2022-08-04T17:20:13;0.90;;;0.90;;
56083;SDS011;41958;52.416;13.428;2022-08-04T17:22:39;3.30;;;0.90;;
56083;SDS011;41958;52.416;13.428;2022-08-04T17:25:05;5.22;;;0.88;;
56083;SDS011;41958;52.416;13.428;2022-08-04T17:27:30;3.90;;;1.00;;
56083;SDS011;41958;52.416;13.428;2022-08-04T17:29:56;1.33;;;0.90;;
56083;SDS011;41958;52.416;13.428;2022-08-04T17:32:21;1.80;;;0.83;;
56083;SDS011;41958;52.416;13.428;2022-08-04T17:34:50;3.47;;;1.08;;
56083;SDS011;41958;52.416;13.428;2022-08-04T17:37:18;2.03;;;0.90;;
56083;SDS011;41958;52.416;13.428;2022-08-04T17:39:48;2.47;;;1.00;;
56083;SDS011;41958;52.416;13.428;2022-08-04T17:42:14;1.20;;;0.82;;
56083;SDS011;41958;52.416;13.428;2022-08-04T17:44:39;2.05;;;0.90;;
56083;SDS011;41958;52.416;13.428;2022-08-04T17:47:15;2.40;;;1.10;;
56083;SDS011;41958;52.416;13.428;2022-08-04T17:49:44;3.30;;;1.05;;
56083;SDS011;41958;52.416;13.428;2022-08-04T17:52:18;3.10;;;0.98;;
56083;SDS011;41958;52.416;13.428;2022-08-04T17:54:44;1.83;;;0.90;;
56083;SDS011;41958;52.416;13.428;2022-08-04T17:57:15;3.33;;;1.13;;
56083;SDS011;41958;52.416;13.428;2022-08-04T17:59:42;3.03;;;0.80;;
56083;SDS011;41958;52.416;13.428;2022-08-04T18:02:10;1.58;;;0.90;;
56083;SDS011;41958;52.416;13.428;2022-08-04T18:07:14;1.83;;;0.90;;
56083;SDS011;41958;52.416;13.428;2022-08-04T18:09:40;2.63;;;0.80;;
56083;SDS011;41958;52.416;13.428;2022-08-04T18:12:22;2.58;;;0.95;;
56083;SDS011;41958;52.416;13.428;2022-08-04T18:14:50;5.72;;;1.00;;
56083;SDS011;41958;52.416;13.428;2022-08-04T18:17:33;4.65;;;0.95;;
56083;SDS011;41958;52.416;13.428;2022-08-04T18:20:01;2.75;;;1.05;;
56083;SDS011;41958;52.416;13.428;2022-08-04T18:22:29;4.60;;;1.02;;
56083;SDS011;41958;52.416;13.428;2022-08-04T18:24:54;3.70;;;1.10;;
56083;SDS011;41958;52.416;13.428;2022-08-04T18:27:20;4.50;;;1.30;;